Time;durP1;ratioP1;P1;durP2;ratioP2;P2;SDS_P1;SDS_P2;PMS_P1;PMS_P2;Temp;Humidity;BMP_temperature;BMP_pressure;BME280_temperature;BME280_humidity;BME280_pressure;Samples;Min_cycle;Max_cycle;Signal;HPM_P1;HPM_P2
2022/06/26 00:02:14;;;;;;;0.80;0.57;;;21.20;99.90;;;;;;5137864;27;21008;-71
2022/06/26 00:04:41;;;;;;;1.87;0.60;;;21.20;16.60;;;;;;5136185;27;20506;-70
2022/06/26 00:07:08;;;;;;;0.57;0.50;;;21.30;99.90;;;;;;5137721;27;20500;-72
2022/06/26 00:09:35;;;;;;;0.70;0.50;;;21.30;58.10;;;;;;5138216;27;20566;-71
2022/06/26 00:12:02;;;;;;;0.80;0.50;;;21.30;1.00;;;;;;5137373;27;20899;-71
2022/06/26 00:14:29;;;;;;;1.73;0.57;;;21.40;1.00;;;;;;5137394;27;20540;-70
2022/06/26 00:16:56;;;;;;;1.50;0.53;;;21.40;1.00;;;;;;5136881;27;20478;-71
2022/06/26 00:19:24;;;;;;;0.60;0.50;;;21.40;1.00;;;;;;5136004;27;20944;-71
2022/06/26 00:21:51;;;;;;;0.67;0.50;;;21.40;99.90;;;;;;5135381;27;20537;-72
2022/06/26 00:24:19;;;;;;;0.50;0.40;;;21.40;99.90;;;;;;5137232;27;20798;-73
2022/06/26 00:26:45;;;;;;;0.80;0.43;;;21.40;1.00;;;;;;5137575;27;20871;-72
2022/06/26 00:29:12;;;;;;;0.60;0.53;;;21.50;99.90;;;;;;5137828;27;20508;-71
2022/06/26 00:31:39;;;;;;;0.90;0.50;;;21.50;99.90;;;;;;5138210;27;20460;-71
2022/06/26 00:34:06;;;;;;;1.13;0.40;;;21.50;1.00;;;;;;5136529;27;20551;-71
2022/06/26 00:36:35;;;;;;;0.80;0.40;;;21.40;1.00;;;;;;5136793;27;20475;-71
2022/06/26 00:39:01;;;;;;;0.67;0.40;;;21.40;1.00;;;;;;5136451;27;20550;-71
2022/06/26 00:41:28;;;;;;;0.60;0.40;;;21.40;89.10;;;;;;5136893;27;20511;-71
2022/06/26 00:43:55;;;;;;;0.80;0.50;;;21.40;1.00;;;;;;5136260;27;20515;-71
2022/06/26 00:46:24;;;;;;;0.70;0.60;;;21.40;1.00;;;;;;5136894;27;20530;-72
2022/06/26 00:48:52;;;;;;;0.60;0.40;;;21.30;99.90;;;;;;5137484;27;20452;-70
2022/06/26 00:51:20;;;;;;;0.67;0.40;;;21.30;99.90;;;;;;5137379;27;20963;-71
2022/06/26 00:53:48;;;;;;;0.60;0.40;;;21.30;1.00;;;;;;5137826;27;20492;-73
2022/06/26 00:56:15;;;;;;;0.60;0.40;;;21.30;30.00;;;;;;5137575;27;20493;-72
2022/06/26 00:58:42;;;;;;;0.67;0.30;;;21.40;1.00;;;;;;5138503;27;20459;-73
2022/06/26 01:01:09;;;;;;;0.40;0.30;;;21.50;1.00;;;;;;5137493;27;20528;-73
2022/06/26 01:03:36;;;;;;;0.80;0.40;;;21.50;1.00;;;;;;5138154;27;20544;-73
2022/06/26 01:06:06;;;;;;;0.60;0.50;;;21.40;1.00;;;;;;5137482;27;20530;-73
2022/06/26 01:08:34;;;;;;;0.93;0.50;;;21.40;99.90;;;;;;5138535;27;20455;-73
2022/06/26 01:11:17;;;;;;;0.60;0.43;;;21.40;99.90;;;;;;5137045;27;20479;-73
2022/06/26 01:13:45;;;;;;;0.50;0.40;;;21.50;99.90;;;;;;5138260;27;20534;-73
2022/06/26 01:16:12;;;;;;;0.60;0.50;;;21.40;99.90;;;;;;5137729;27;20547;-72
2022/06/26 01:18:40;;;;;;;0.70;0.40;;;21.50;1.00;;;;;;5135977;27;20547;-72
2022/06/26 01:21:07;;;;;;;1.07;0.40;;;21.60;99.90;;;;;;5135459;27;21113;-73
2022/06/26 01:23:35;;;;;;;0.70;0.40;;;21.60;99.90;;;;;;5134827;27;20832;-72
2022/06/26 01:26:02;;;;;;;0.57;0.40;;;21.70;99.90;;;;;;5134823;27;20519;-72
2022/06/26 01:28:29;;;;;;;0.63;0.40;;;21.70;99.90;;;;;;5136676;27;20502;-73
2022/06/26 01:30:56;;;;;;;0.50;0.40;;;21.60;99.90;;;;;;5137677;27;20504;-72
2022/06/26 01:33:23;;;;;;;0.67;0.50;;;21.50;99.90;;;;;;5137667;27;20492;-72
2022/06/26 01:35:50;;;;;;;0.70;0.50;;;21.40;1.00;;;;;;5137495;27;20535;-72
2022/06/26 01:38:20;;;;;;;0.83;0.50;;;21.30;1.00;;;;;;5136493;27;20486;-72
2022/06/26 01:40:50;;;;;;;0.50;0.40;;;21.30;67.80;;;;;;5136135;27;20768;-72
2022/06/26 01:43:19;;;;;;;0.63;0.50;;;21.30;99.90;;;;;;5135853;27;20484;-72
2022/06/26 01:45:48;;;;;;;0.70;0.50;;;21.30;99.90;;;;;;5135955;27;20483;-72
2022/06/26 01:48:16;;;;;;;0.60;0.40;;;21.40;99.90;;;;;;5136289;27;20472;-72
2022/06/26 01:50:44;;;;;;;1.53;0.50;;;21.40;1.00;;;;;;5136465;27;20524;-71
2022/06/26 01:53:11;;;;;;;0.60;0.47;;;21.50;99.90;;;;;;5137335;27;20542;-72
2022/06/26 01:55:38;;;;;;;0.50;0.40;;;21.50;1.00;;;;;;5137366;27;20483;-71
2022/06/26 01:58:07;;;;;;;0.60;0.37;;;21.60;38.40;;;;;;5137731;27;20793;-72
2022/06/26 02:00:36;;;;;;;0.47;0.40;;;21.60;1.00;;;;;;5136829;27;20475;-72
2022/06/26 02:03:04;;;;;;;0.80;0.50;;;21.50;8.20;;;;;;5136983;27;20546;-72
2022/06/26 02:05:31;;;;;;;1.00;0.40;;;21.40;99.90;;;;;;5137230;27;20479;-72
2022/06/26 02:07:58;;;;;;;0.60;0.50;;;21.40;1.00;;;;;;5134914;27;20519;-71
2022/06/26 02:15:57;;;;;;;0.70;0.50;;;21.60;99.90;;;;;;5136713;27;20420;-72
2022/06/26 02:18:25;;;;;;;0.57;0.40;;;21.60;99.90;;;;;;5135936;27;20487;-73
2022/06/26 02:20:52;;;;;;;2.00;0.40;;;21.40;99.90;;;;;;5134797;27;20597;-72
2022/06/26 02:23:19;;;;;;;0.70;0.50;;;21.20;1.00;;;;;;5134986;27;20961;-72
2022/06/26 02:25:46;;;;;;;0.90;0.43;;;21.20;1.00;;;;;;5134352;27;20483;-72
2022/06/26 02:28:16;;;;;;;0.73;0.50;;;21.10;99.90;;;;;;5132668;27;20547;-72
2022/06/26 02:30:43;;;;;;;0.80;0.50;;;21.00;1.00;;;;;;5135207;27;20901;-72
2022/06/26 02:33:11;;;;;;;0.53;0.40;;;20.90;5.90;;;;;;5135255;27;20820;-72
2022/06/26 02:35:38;;;;;;;0.80;0.50;;;20.80;1.00;;;;;;5135211;27;20531;-72
2022/06/26 02:38:05;;;;;;;0.50;0.40;;;20.70;11.60;;;;;;5135758;27;20512;-72
2022/06/26 02:40:32;;;;;;;0.90;0.50;;;20.60;99.90;;;;;;5135668;27;20542;-72
2022/06/26 02:42:59;;;;;;;0.60;0.50;;;20.60;99.90;;;;;;5136327;27;20538;-72
2022/06/26 02:45:28;;;;;;;0.60;0.40;;;20.50;99.90;;;;;;5133030;27;20479;-72
2022/06/26 02:47:54;;;;;;;0.60;0.50;;;20.40;99.90;;;;;;5156887;27;20488;-71
2022/06/26 02:50:21;;;;;;;0.60;0.50;;;20.40;1.00;;;;;;5157051;27;20482;-71
2022/06/26 02:52:48;;;;;;;0.50;0.40;;;20.30;1.00;;;;;;5140491;27;20494;-72
2022/06/26 02:55:16;;;;;;;0.73;0.60;;;20.40;1.00;;;;;;5156175;27;20443;-71
2022/06/26 02:57:42;;;;;;;0.70;0.50;;;20.50;1.00;;;;;;5141792;27;20550;-71
2022/06/26 03:00:12;;;;;;;0.73;0.50;;;20.50;99.90;;;;;;5133091;28;20891;-72
2022/06/26 03:02:40;;;;;;;0.53;0.40;;;20.60;99.90;;;;;;5135765;27;20480;-71
2022/06/26 03:05:08;;;;;;;0.60;0.50;;;20.60;99.90;;;;;;5144999;27;20549;-72
2022/06/26 03:07:35;;;;;;;0.73;0.50;;;20.70;99.90;;;;;;5143383;27;20460;-71
2022/06/26 03:10:02;;;;;;;0.57;0.37;;;20.80;99.90;;;;;;5157666;27;20470;-71
2022/06/26 03:12:29;;;;;;;0.50;0.40;;;20.80;99.90;;;;;;5157657;27;20490;-71
2022/06/26 03:14:56;;;;;;;0.60;0.40;;;20.80;99.90;;;;;;5147740;27;20454;-71
2022/06/26 03:17:24;;;;;;;0.60;0.47;;;20.80;99.90;;;;;;5157130;27;20461;-71
2022/06/26 03:19:53;;;;;;;1.20;0.40;;;20.70;1.00;;;;;;5147432;27;20451;-71
2022/06/26 03:22:20;;;;;;;0.70;0.40;;;20.70;99.90;;;;;;5156976;27;20478;-71
2022/06/26 03:24:47;;;;;;;0.63;0.40;;;20.70;99.90;;;;;;5148245;27;20550;-72
2022/06/26 03:27:14;;;;;;;3.50;0.47;;;20.70;1.00;;;;;;5157240;27;20489;-72
2022/06/26 03:29:40;;;;;;;0.83;0.40;;;20.80;99.90;;;;;;5157670;27;20447;-71
2022/06/26 03:32:08;;;;;;;0.77;0.50;;;20.90;1.00;;;;;;5145278;27;20938;-71
2022/06/26 03:34:35;;;;;;;0.60;0.40;;;20.90;99.90;;;;;;5161341;27;20450;-72
2022/06/26 03:37:04;;;;;;;0.60;0.40;;;21.00;99.90;;;;;;5151081;27;20455;-72
2022/06/26 03:39:31;;;;;;;0.60;0.40;;;21.10;1.00;;;;;;5161055;27;20478;-72
2022/06/26 03:42:01;;;;;;;0.50;0.40;;;21.10;1.00;;;;;;5155477;27;20509;-71
2022/06/26 03:44:29;;;;;;;0.60;0.50;;;21.00;99.90;;;;;;5156792;27;20489;-72
2022/06/26 03:46:56;;;;;;;0.60;0.50;;;20.90;99.90;;;;;;5154929;27;20467;-71
2022/06/26 03:49:23;;;;;;;0.50;0.40;;;20.70;99.90;;;;;;5148001;27;20517;-71
2022/06/26 03:51:51;;;;;;;0.70;0.40;;;20.60;1.00;;;;;;5159686;27;20534;-71
2022/06/26 03:54:20;;;;;;;0.57;0.40;;;20.50;1.00;;;;;;5150943;27;20832;-71
2022/06/26 03:56:46;;;;;;;0.50;0.30;;;20.50;1.00;;;;;;5160265;27;20871;-71
2022/06/26 03:59:14;;;;;;;1.10;0.50;;;20.60;1.00;;;;;;5156988;27;20894;-71
2022/06/26 04:01:41;;;;;;;0.60;0.33;;;20.60;1.00;;;;;;5153139;27;20849;-71
2022/06/26 04:04:08;;;;;;;0.50;0.40;;;20.80;99.90;;;;;;5159619;27;20478;-70
2022/06/26 04:06:35;;;;;;;0.40;0.30;;;20.80;1.00;;;;;;5145452;27;20450;-71
2022/06/26 04:09:03;;;;;;;0.40;0.30;;;20.90;1.00;;;;;;5160237;27;20905;-71
2022/06/26 04:11:32;;;;;;;0.50;0.37;;;21.00;99.90;;;;;;5152258;27;20456;-71
2022/06/26 04:13:59;;;;;;;0.80;0.30;;;21.00;1.00;;;;;;5157737;27;20451;-73
2022/06/26 04:16:26;;;;;;;0.90;0.40;;;21.10;1.00;;;;;;5159417;27;20470;-72
2022/06/26 04:18:53;;;;;;;0.50;0.30;;;21.00;1.00;;;;;;5149558;27;20554;-71
2022/06/26 04:21:20;;;;;;;0.53;0.40;;;20.90;1.00;;;;;;5159505;27;21104;-73
2022/06/26 04:23:46;;;;;;;0.50;0.30;;;20.80;1.00;;;;;;5148962;27;20853;-71
2022/06/26 04:26:13;;;;;;;0.90;0.50;;;20.70;1.00;;;;;;5158671;27;20529;-71
2022/06/26 04:28:42;;;;;;;0.70;0.50;;;20.60;99.90;;;;;;5152321;27;20521;-71
2022/06/26 04:31:08;;;;;;;0.60;0.50;;;20.40;1.00;;;;;;5139224;27;20458;-71
2022/06/26 04:33:36;;;;;;;0.80;0.40;;;20.30;1.00;;;;;;5158622;27;20530;-72
2022/06/26 04:36:02;;;;;;;0.50;0.50;;;20.20;1.00;;;;;;5147692;27;20503;-71
2022/06/26 04:38:29;;;;;;;0.60;0.40;;;20.10;1.00;;;;;;5158495;27;20537;-72
2022/06/26 04:40:56;;;;;;;0.70;0.47;;;20.10;1.00;;;;;;5159226;27;20534;-71
2022/06/26 04:43:23;;;;;;;0.70;0.50;;;20.10;1.00;;;;;;5145685;27;20526;-71
2022/06/26 04:45:51;;;;;;;0.70;0.40;;;20.10;1.00;;;;;;5156879;27;20562;-71
2022/06/26 04:48:18;;;;;;;0.73;0.47;;;20.10;1.00;;;;;;5148404;27;20522;-71
2022/06/26 04:50:45;;;;;;;0.50;0.40;;;20.20;1.00;;;;;;5157439;27;20534;-71
2022/06/26 04:53:12;;;;;;;0.60;0.40;;;20.40;1.00;;;;;;5150042;27;20579;-72
2022/06/26 04:55:39;;;;;;;1.10;0.50;;;20.40;1.00;;;;;;5154595;27;20543;-71
2022/06/26 04:58:06;;;;;;;1.00;0.60;;;20.40;1.00;;;;;;5159659;27;20545;-71
2022/06/26 05:00:34;;;;;;;0.60;0.30;;;20.40;1.00;;;;;;5149438;27;20545;-71
2022/06/26 05:03:02;;;;;;;0.60;0.40;;;20.50;99.90;;;;;;5158413;27;20826;-72
2022/06/26 05:05:29;;;;;;;0.80;0.40;;;20.50;99.90;;;;;;5148480;27;20550;-71
2022/06/26 05:07:56;;;;;;;0.60;0.33;;;20.50;1.00;;;;;;5158150;27;20507;-71
2022/06/26 05:10:23;;;;;;;0.87;0.40;;;20.60;1.00;;;;;;5153103;27;20641;-71
2022/06/26 05:12:51;;;;;;;0.83;0.40;;;20.50;1.00;;;;;;5150005;27;20475;-72
2022/06/26 05:15:19;;;;;;;0.50;0.33;;;20.50;1.00;;;;;;5158650;27;20439;-71
2022/06/26 05:17:46;;;;;;;0.50;0.30;;;20.60;14.30;;;;;;5146844;27;20455;-72
2022/06/26 05:20:14;;;;;;;0.63;0.40;;;20.70;99.90;;;;;;5158586;27;20529;-71
2022/06/26 05:22:41;;;;;;;0.40;0.30;;;20.90;99.90;;;;;;5148714;27;20585;-72
2022/06/26 05:25:09;;;;;;;0.47;0.40;;;21.00;99.90;;;;;;5158778;27;20520;-71
2022/06/26 05:27:35;;;;;;;0.87;0.40;;;21.00;99.90;;;;;;5146041;27;20539;-71
2022/06/26 05:30:03;;;;;;;0.53;0.40;;;21.00;1.00;;;;;;5158466;27;20945;-71
2022/06/26 05:32:30;;;;;;;0.60;0.33;;;21.10;1.00;;;;;;5145900;27;20482;-71
2022/06/26 05:34:57;;;;;;;0.60;0.43;;;21.10;99.90;;;;;;5157228;27;20447;-71
2022/06/26 05:37:25;;;;;;;0.50;0.40;;;21.10;99.90;;;;;;5158038;27;20821;-71
2022/06/26 05:39:52;;;;;;;0.60;0.40;;;21.10;99.90;;;;;;5145793;27;20454;-71
2022/06/26 05:42:19;;;;;;;0.70;0.50;;;21.00;99.90;;;;;;5158870;27;20574;-71
2022/06/26 05:44:46;;;;;;;1.07;0.50;;;21.00;1.00;;;;;;5148774;27;20518;-70
2022/06/26 05:47:13;;;;;;;1.23;0.60;;;20.90;1.00;;;;;;5148300;27;20555;-71
2022/06/26 05:49:40;;;;;;;0.70;0.50;;;20.90;1.00;;;;;;5157379;27;20477;-71
2022/06/26 05:52:07;;;;;;;0.60;0.50;;;20.90;1.00;;;;;;5152629;27;20530;-71
2022/06/26 05:54:35;;;;;;;0.50;0.50;;;20.90;1.00;;;;;;5151948;27;20549;-71
2022/06/26 05:57:02;;;;;;;0.50;0.40;;;21.00;1.00;;;;;;5156246;27;20539;-71
2022/06/26 05:59:29;;;;;;;0.60;0.50;;;20.90;99.90;;;;;;5147713;27;20467;-72
2022/06/26 06:01:56;;;;;;;0.70;0.43;;;20.80;1.00;;;;;;5157790;27;20860;-72
2022/06/26 06:04:23;;;;;;;0.60;0.50;;;20.70;1.00;;;;;;5145230;27;20555;-71
2022/06/26 06:06:50;;;;;;;0.50;0.30;;;20.70;1.00;;;;;;5157993;27;20479;-72
2022/06/26 06:09:17;;;;;;;0.50;0.40;;;20.70;99.90;;;;;;5156090;27;20498;-72
2022/06/26 06:11:45;;;;;;;0.50;0.30;;;20.80;99.90;;;;;;5142512;27;20454;-72
2022/06/26 06:14:12;;;;;;;0.50;0.30;;;20.80;86.00;;;;;;5156067;27;20785;-72
2022/06/26 06:16:39;;;;;;;0.40;0.30;;;20.80;99.90;;;;;;5144267;27;20588;-71
2022/06/26 06:19:06;;;;;;;0.50;0.27;;;20.90;99.90;;;;;;5155916;27;20513;-71
2022/06/26 06:21:33;;;;;;;0.50;0.30;;;20.90;99.90;;;;;;5146843;27;20492;-71
2022/06/26 06:24:00;;;;;;;0.40;0.30;;;21.00;99.90;;;;;;5154109;27;20954;-71
2022/06/26 06:26:27;;;;;;;0.50;0.30;;;21.10;1.00;;;;;;5157168;27;20474;-72
2022/06/26 06:28:55;;;;;;;0.60;0.40;;;21.20;1.00;;;;;;5146980;27;20549;-71
2022/06/26 06:31:22;;;;;;;0.40;0.30;;;21.20;1.00;;;;;;5157477;27;20870;-70
2022/06/26 06:33:49;;;;;;;0.80;0.27;;;21.30;99.90;;;;;;5147409;27;20557;-73
2022/06/26 06:36:16;;;;;;;0.40;0.30;;;21.40;1.00;;;;;;5157148;27;20929;-71
2022/06/26 06:38:43;;;;;;;0.40;0.20;;;21.50;1.00;;;;;;5152271;27;20494;-71
2022/06/26 06:41:10;;;;;;;0.30;0.20;;;21.80;99.90;;;;;;5150050;27;21078;-70
2022/06/26 06:43:37;;;;;;;0.50;0.30;;;21.80;99.90;;;;;;5157052;27;20497;-71
2022/06/26 06:46:05;;;;;;;0.40;0.30;;;21.90;99.90;;;;;;5144465;27;20467;-71
2022/06/26 06:48:34;;;;;;;0.40;0.30;;;22.10;99.90;;;;;;5146100;27;20513;-73
2022/06/26 06:51:01;;;;;;;0.50;0.30;;;22.20;99.90;;;;;;5133072;27;20894;-73
2022/06/26 06:53:27;;;;;;;0.50;0.27;;;22.20;99.90;;;;;;5157559;27;20526;-74
2022/06/26 06:55:54;;;;;;;0.50;0.30;;;22.10;92.30;;;;;;5138589;27;20474;-72
2022/06/26 06:58:21;;;;;;;0.50;0.40;;;22.00;99.90;;;;;;5140399;27;20550;-72
2022/06/26 07:00:48;;;;;;;0.50;0.30;;;22.00;99.90;;;;;;5149460;27;20463;-72
2022/06/26 07:03:17;;;;;;;0.40;0.30;;;22.00;99.90;;;;;;5143171;27;20546;-72
2022/06/26 07:05:43;;;;;;;0.50;0.30;;;22.20;99.90;;;;;;5159248;27;20471;-72
2022/06/26 07:08:10;;;;;;;0.50;0.30;;;22.40;99.90;;;;;;5149317;27;20503;-72
2022/06/26 07:10:37;;;;;;;0.50;0.30;;;22.50;99.90;;;;;;5153245;27;20444;-72
2022/06/26 07:13:04;;;;;;;0.60;0.30;;;22.60;99.90;;;;;;5143044;27;20504;-72
2022/06/26 07:15:31;;;;;;;0.40;0.30;;;22.70;99.90;;;;;;5147814;27;20454;-72
2022/06/26 07:17:59;;;;;;;0.50;0.30;;;22.70;99.90;;;;;;5145160;27;20492;-72
2022/06/26 07:20:27;;;;;;;0.70;0.40;;;22.70;99.90;;;;;;5153418;27;20533;-71
2022/06/26 07:22:54;;;;;;;0.67;0.30;;;22.70;99.90;;;;;;5160726;27;20524;-71
2022/06/26 07:25:22;;;;;;;0.50;0.30;;;22.60;99.90;;;;;;5151451;27;20558;-70
2022/06/26 07:27:49;;;;;;;0.60;0.30;;;22.60;99.90;;;;;;5152140;27;20739;-71
2022/06/26 07:30:16;;;;;;;0.43;0.40;;;22.70;99.90;;;;;;5159543;27;20469;-72
2022/06/26 07:32:44;;;;;;;1.87;0.40;;;22.80;99.90;;;;;;5148944;27;20550;-72
2022/06/26 07:35:11;;;;;;;0.73;0.40;;;22.80;94.70;;;;;;5158825;27;20518;-72
2022/06/26 07:37:40;;;;;;;0.47;0.30;;;22.70;99.90;;;;;;5147890;27;20459;-71
2022/06/26 07:40:08;;;;;;;0.50;0.33;;;22.80;99.90;;;;;;5159362;27;20446;-71
2022/06/26 07:42:35;;;;;;;0.60;0.40;;;22.80;85.40;;;;;;5158901;27;20563;-71
2022/06/26 07:45:02;;;;;;;0.57;0.40;;;22.90;99.90;;;;;;5159844;27;20890;-71
2022/06/26 07:47:29;;;;;;;0.50;0.40;;;23.00;99.90;;;;;;5150622;27;20490;-71
2022/06/26 07:49:56;;;;;;;0.63;0.30;;;23.20;22.90;;;;;;5152997;27;20483;-72
2022/06/26 07:52:23;;;;;;;0.50;0.40;;;23.30;1.00;;;;;;5147509;27;20947;-71
2022/06/26 07:54:51;;;;;;;0.50;0.30;;;23.40;1.00;;;;;;5159557;27;20522;-71
2022/06/26 07:57:19;;;;;;;0.67;0.37;;;23.40;1.00;;;;;;5145697;27;20499;-71
2022/06/26 07:59:45;;;;;;;0.50;0.40;;;23.50;1.00;;;;;;5159433;27;20454;-72
2022/06/26 08:02:12;;;;;;;0.53;0.30;;;23.50;1.00;;;;;;5149103;27;20460;-72
2022/06/26 08:04:39;;;;;;;0.50;0.30;;;23.60;1.00;;;;;;5157719;27;20482;-71
2022/06/26 08:07:06;;;;;;;0.40;0.30;;;23.60;1.00;;;;;;5159149;27;20626;-72
2022/06/26 08:09:33;;;;;;;0.50;0.40;;;23.60;1.00;;;;;;5144273;27;20463;-71
2022/06/26 08:12:02;;;;;;;0.40;0.27;;;23.70;1.00;;;;;;5158672;27;20438;-72
2022/06/26 08:14:29;;;;;;;0.60;0.40;;;23.70;1.00;;;;;;5150562;27;20557;-72
2022/06/26 08:16:55;;;;;;;0.90;0.30;;;23.70;1.00;;;;;;5176608;27;20439;-72
2022/06/26 08:19:22;;;;;;;0.70;0.37;;;23.60;1.00;;;;;;5124094;27;20468;-71
2022/06/26 08:22:01;;;;;;;0.50;0.30;;;23.70;1.00;;;;;;5118089;28;20919;-72
2022/06/26 08:24:28;;;;;;;0.50;0.33;;;23.80;1.00;;;;;;5134274;27;20565;-72
2022/06/26 08:26:55;;;;;;;0.70;0.47;;;24.00;1.00;;;;;;5159536;27;20478;-74
2022/06/26 08:29:24;;;;;;;0.47;0.40;;;24.10;1.00;;;;;;5147196;27;20853;-74
2022/06/26 08:31:51;;;;;;;0.50;0.40;;;24.20;1.00;;;;;;5118645;28;20497;-73
2022/06/26 08:34:18;;;;;;;0.53;0.33;;;24.20;1.00;;;;;;5117349;28;20502;-72
2022/06/26 08:36:44;;;;;;;0.50;0.40;;;24.10;1.00;;;;;;5148519;27;20467;-72
2022/06/26 08:39:11;;;;;;;0.50;0.30;;;24.10;1.00;;;;;;5159572;27;20545;-72
2022/06/26 08:41:42;;;;;;;0.40;0.30;;;24.10;1.00;;;;;;5147914;27;20455;-72
2022/06/26 08:44:09;;;;;;;0.60;0.40;;;23.90;1.00;;;;;;5151391;27;20867;-71
2022/06/26 08:46:39;;;;;;;0.50;0.30;;;24.00;1.00;;;;;;5153040;27;20530;-72
2022/06/26 08:49:10;;;;;;;0.63;0.40;;;24.20;1.00;;;;;;5159126;27;20511;-73
2022/06/26 08:51:40;;;;;;;0.60;0.40;;;24.30;1.00;;;;;;5152712;27;20475;-71
2022/06/26 08:54:09;;;;;;;0.70;0.40;;;24.50;1.00;;;;;;5138442;27;20805;-72
2022/06/26 08:56:38;;;;;;;0.50;0.33;;;24.80;1.00;;;;;;5150875;27;20451;-74
2022/06/26 08:59:05;;;;;;;0.70;0.40;;;24.90;1.00;;;;;;5131373;27;20982;-72
2022/06/26 09:01:32;;;;;;;0.60;0.40;;;24.90;1.00;;;;;;5131766;27;20536;-71
2022/06/26 09:04:01;;;;;;;5.27;4.77;;;25.00;1.00;;;;;;5150127;27;20543;-72
2022/06/26 09:06:28;;;;;;;0.50;0.30;;;24.90;1.00;;;;;;5135912;27;20444;-71
2022/06/26 09:08:55;;;;;;;0.50;0.30;;;24.90;1.00;;;;;;5128648;27;20508;-72
2022/06/26 09:11:22;;;;;;;0.50;0.40;;;24.90;1.00;;;;;;5152347;27;20447;-72
2022/06/26 09:13:53;;;;;;;0.50;0.40;;;25.00;1.00;;;;;;5142353;27;20487;-73
2022/06/26 09:16:31;;;;;;;0.50;0.33;;;25.10;1.00;;;;;;5143867;27;20443;-72
2022/06/26 09:19:10;;;;;;;0.47;0.30;;;25.00;1.00;;;;;;5144948;27;20542;-74
2022/06/26 09:21:37;;;;;;;0.50;0.30;;;25.00;1.00;;;;;;5145111;27;20483;-74
2022/06/26 09:24:09;;;;;;;0.40;0.30;;;25.10;1.00;;;;;;5149191;27;20474;-72
2022/06/26 09:26:40;;;;;;;1.20;0.30;;;25.20;1.00;;;;;;5152959;27;20446;-72
2022/06/26 09:29:11;;;;;;;0.50;0.33;;;25.20;1.00;;;;;;5141433;27;20455;-72
2022/06/26 09:31:39;;;;;;;0.50;0.40;;;25.30;1.00;;;;;;5147615;27;20444;-73
2022/06/26 09:34:20;;;;;;;0.40;0.30;;;25.30;1.00;;;;;;5140166;27;20443;-73
2022/06/26 09:36:57;;;;;;;0.40;0.30;;;25.20;1.00;;;;;;5137333;27;20504;-73
2022/06/26 09:39:25;;;;;;;0.57;0.33;;;25.20;1.00;;;;;;5142398;27;20498;-72
2022/06/26 09:41:52;;;;;;;0.30;0.30;;;25.20;1.00;;;;;;5146613;27;20443;-73
2022/06/26 09:44:20;;;;;;;0.40;0.30;;;25.30;1.00;;;;;;5141330;27;21017;-72
2022/06/26 09:46:47;;;;;;;0.40;0.30;;;25.40;1.00;;;;;;5124587;27;20543;-72
2022/06/26 09:49:18;;;;;;;0.50;0.30;;;25.10;1.00;;;;;;5127863;27;20455;-72
2022/06/26 09:51:45;;;;;;;0.40;0.30;;;25.10;1.00;;;;;;5133738;27;20447;-73
2022/06/26 09:54:13;;;;;;;0.67;0.30;;;25.40;1.00;;;;;;5135534;27;20532;-72
2022/06/26 09:56:41;;;;;;;0.40;0.30;;;25.80;1.00;;;;;;5135751;27;20997;-73
2022/06/26 09:59:11;;;;;;;0.50;0.30;;;26.30;1.00;;;;;;5126560;27;20448;-72
2022/06/26 10:07:09;;;;;;;0.40;0.30;;;26.50;1.00;;;;;;5133250;27;20435;-72
2022/06/26 10:09:37;;;;;;;0.40;0.20;;;26.50;1.00;;;;;;5128166;27;20907;-72
2022/06/26 10:12:05;;;;;;;0.50;0.40;;;26.70;1.00;;;;;;5116375;28;20504;-74
2022/06/26 10:14:37;;;;;;;0.50;0.30;;;26.90;1.00;;;;;;5116831;28;20872;-73
2022/06/26 10:17:29;;;;;;;2.70;0.40;;;27.10;1.00;;;;;;5116105;28;20445;-72
2022/06/26 10:19:59;;;;;;;0.90;0.77;;;27.20;1.00;;;;;;5117178;27;20439;-73
2022/06/26 10:22:27;;;;;;;0.50;0.30;;;27.30;1.00;;;;;;5128290;27;20498;-72
2022/06/26 10:24:56;;;;;;;1.20;0.90;;;27.30;1.00;;;;;;5110969;28;20545;-71
2022/06/26 10:27:29;;;;;;;0.57;0.40;;;27.50;1.00;;;;;;5124829;28;20451;-71
2022/06/26 10:30:16;;;;;;;1.10;0.50;;;27.90;1.00;;;;;;5133678;28;20489;-72
2022/06/26 10:32:45;;;;;;;0.50;0.33;;;28.30;1.00;;;;;;5118631;28;20875;-72
2022/06/26 10:35:16;;;;;;;0.50;0.30;;;28.50;1.00;;;;;;5129818;28;20518;-72
2022/06/26 10:37:45;;;;;;;0.40;0.30;;;28.80;1.00;;;;;;5126238;28;20834;-72
2022/06/26 10:42:52;;;;;;;0.50;0.40;;;28.60;1.00;;;;;;5131256;27;20476;-74
2022/06/26 10:43:02;;;;;;;0.53;0.30;;;28.50;1.00;;;;;;5118700;27;20577;-74
2022/06/26 10:45:31;;;;;;;0.57;0.37;;;28.90;1.00;;;;;;5142951;27;20447;-73
2022/06/26 10:48:00;;;;;;;0.40;0.30;;;29.40;1.00;;;;;;5152465;27;20459;-72
2022/06/26 10:50:33;;;;;;;0.53;0.40;;;29.00;1.00;;;;;;5147795;27;20474;-72
2022/06/26 10:53:19;;;;;;;0.40;0.30;;;29.10;1.00;;;;;;5150592;27;20559;-73
2022/06/26 10:55:49;;;;;;;0.43;0.33;;;29.00;1.00;;;;;;5159391;27;20530;-72
2022/06/26 10:58:27;;;;;;;0.40;0.20;;;29.10;1.00;;;;;;5158332;27;20490;-72
2022/06/26 11:00:55;;;;;;;0.40;0.30;;;29.00;1.00;;;;;;5158825;27;20465;-72
2022/06/26 11:03:23;;;;;;;0.50;0.30;;;29.30;1.00;;;;;;5160049;27;20475;-72
2022/06/26 11:05:57;;;;;;;0.60;0.50;;;28.80;1.00;;;;;;5159783;27;20446;-71
2022/06/26 11:08:26;;;;;;;0.57;0.40;;;28.70;1.00;;;;;;5160395;27;20450;-71
2022/06/26 11:10:53;;;;;;;0.40;0.30;;;29.10;1.00;;;;;;5160132;27;20445;-72
2022/06/26 11:13:20;;;;;;;0.90;0.60;;;29.30;1.00;;;;;;5159727;27;20454;-72
2022/06/26 11:15:47;;;;;;;0.40;0.30;;;29.00;1.00;;;;;;5160374;27;20443;-72
2022/06/26 11:18:15;;;;;;;0.60;0.30;;;28.90;1.00;;;;;;5158506;27;20527;-71
2022/06/26 11:20:47;;;;;;;0.40;0.30;;;28.90;1.00;;;;;;5137826;27;21042;-72
2022/06/26 11:23:20;;;;;;;0.83;0.30;;;29.00;1.00;;;;;;5117321;28;20521;-72
2022/06/26 11:25:49;;;;;;;0.50;0.30;;;29.00;1.00;;;;;;5127790;27;20760;-72
2022/06/26 11:28:17;;;;;;;0.50;0.30;;;28.80;1.00;;;;;;5138526;27;20743;-72
2022/06/26 11:30:46;;;;;;;0.60;0.40;;;28.90;1.00;;;;;;5138682;27;20457;-72
2022/06/26 11:33:13;;;;;;;1.20;0.30;;;29.00;1.00;;;;;;5137855;27;20516;-72
2022/06/26 11:35:41;;;;;;;0.60;0.40;;;28.30;1.00;;;;;;5138734;27;20456;-72
2022/06/26 11:38:15;;;;;;;0.50;0.30;;;28.70;1.00;;;;;;5119509;27;20495;-73
2022/06/26 11:40:45;;;;;;;0.50;0.30;;;29.00;1.00;;;;;;5119026;28;20444;-72
2022/06/26 11:43:13;;;;;;;0.83;0.33;;;29.10;1.00;;;;;;5116305;27;20607;-73
2022/06/26 11:45:40;;;;;;;0.40;0.30;;;29.20;1.00;;;;;;5118314;28;20480;-72
2022/06/26 11:48:10;;;;;;;0.40;0.30;;;29.10;1.00;;;;;;5118354;28;20501;-72
2022/06/26 11:50:38;;;;;;;0.50;0.30;;;29.30;1.00;;;;;;5117927;28;20453;-73
2022/06/26 11:53:06;;;;;;;0.40;0.20;;;30.10;1.00;;;;;;5117354;28;20801;-72
2022/06/26 11:55:34;;;;;;;0.47;0.40;;;30.60;1.00;;;;;;5117376;28;20755;-73
2022/06/26 11:58:03;;;;;;;1.80;0.50;;;30.40;1.00;;;;;;5117616;28;20547;-72
2022/06/26 12:00:31;;;;;;;0.70;0.40;;;30.40;1.00;;;;;;5117092;28;20436;-72
2022/06/26 12:02:58;;;;;;;0.40;0.30;;;30.50;1.00;;;;;;5117361;28;20568;-71
2022/06/26 12:05:27;;;;;;;1.03;0.40;;;30.50;1.00;;;;;;5115979;28;20473;-72
2022/06/26 12:07:55;;;;;;;1.03;0.43;;;30.50;1.00;;;;;;5117521;27;20468;-72
2022/06/26 12:10:27;;;;;;;0.80;0.30;;;30.80;1.00;;;;;;5117246;28;20487;-72
2022/06/26 12:12:54;;;;;;;0.40;0.30;;;31.40;1.00;;;;;;5117415;27;20459;-71
2022/06/26 12:15:25;;;;;;;0.40;0.30;;;31.50;1.00;;;;;;5134285;27;20483;-72
2022/06/26 12:17:54;;;;;;;0.50;0.30;;;31.40;1.00;;;;;;5137810;27;20487;-73
2022/06/26 12:20:21;;;;;;;0.60;0.40;;;31.40;1.00;;;;;;5137484;27;20534;-73
2022/06/26 12:22:53;;;;;;;0.50;0.30;;;31.60;1.00;;;;;;5136958;27;20798;-73
2022/06/26 12:25:28;;;;;;;0.50;0.40;;;31.30;1.00;;;;;;5136417;27;20515;-73
2022/06/26 12:27:55;;;;;;;3.30;0.30;;;31.10;1.00;;;;;;5137298;27;20925;-73
2022/06/26 12:30:25;;;;;;;0.50;0.40;;;31.40;1.00;;;;;;5136468;27;20547;-72
2022/06/26 12:32:52;;;;;;;1.23;0.40;;;31.70;1.00;;;;;;5134270;27;20491;-72
2022/06/26 12:35:19;;;;;;;0.43;0.30;;;31.90;1.00;;;;;;5137074;27;20799;-72
2022/06/26 12:37:46;;;;;;;1.20;0.30;;;32.20;1.00;;;;;;5136120;27;20504;-72
2022/06/26 12:40:14;;;;;;;0.40;0.30;;;32.20;1.00;;;;;;5131277;27;20531;-72
2022/06/26 12:42:41;;;;;;;0.50;0.30;;;31.90;1.00;;;;;;5124379;27;20972;-73
2022/06/26 12:45:09;;;;;;;0.30;0.20;;;32.10;1.00;;;;;;5137440;27;20530;-73
2022/06/26 12:47:37;;;;;;;0.87;0.30;;;32.20;1.00;;;;;;5137477;27;20520;-73
2022/06/26 12:50:06;;;;;;;0.60;0.30;;;32.20;1.00;;;;;;5137000;27;20467;-72
2022/06/26 12:52:33;;;;;;;0.50;0.30;;;31.30;1.00;;;;;;5153497;27;20885;-72
2022/06/26 12:55:00;;;;;;;0.50;0.37;;;31.50;1.00;;;;;;5158795;27;20514;-72
2022/06/26 12:57:27;;;;;;;0.40;0.27;;;31.40;1.00;;;;;;5157040;27;20470;-72
2022/06/26 12:59:54;;;;;;;0.40;0.30;;;31.80;1.00;;;;;;5140640;27;20517;-71
2022/06/26 13:02:21;;;;;;;0.60;0.30;;;32.20;1.00;;;;;;5138172;27;20444;-72
2022/06/26 13:04:51;;;;;;;0.40;0.30;;;32.30;1.00;;;;;;5136767;27;20619;-72
2022/06/26 13:07:18;;;;;;;0.50;0.30;;;32.40;1.00;;;;;;5130119;27;20890;-71
2022/06/26 13:09:45;;;;;;;0.30;0.30;;;32.70;1.00;;;;;;5139058;27;20809;-72